sensor_id;sensor_type;location;lat;lon;timestamp;P1;durP1;ratioP1;P2;durP2;ratioP2
14294;SDS011;7231;59.370;18.016;2023-05-07T00:01:02;2.90;;;2.20;;
14294;SDS011;7231;59.370;18.016;2023-05-07T00:03:32;4.23;;;2.13;;
14294;SDS011;7231;59.370;18.016;2023-05-07T00:06:00;3.13;;;2.13;;
14294;SDS011;7231;59.370;18.016;2023-05-07T00:08:28;2.63;;;2.27;;
14294;SDS011;7231;59.370;18.016;2023-05-07T00:10:56;3.03;;;2.07;;
14294;SDS011;7231;59.370;18.016;2023-05-07T00:13:24;3.80;;;2.00;;
14294;SDS011;7231;59.370;18.016;2023-05-07T00:15:52;3.20;;;2.40;;
14294;SDS011;7231;59.370;18.016;2023-05-07T00:18:21;5.20;;;2.60;;
14294;SDS011;7231;59.370;18.016;2023-05-07T00:20:49;3.23;;;2.20;;
14294;SDS011;7231;59.370;18.016;2023-05-07T00:23:17;2.73;;;2.13;;
14294;SDS011;7231;59.370;18.016;2023-05-07T00:25:45;3.63;;;2.20;;
14294;SDS011;7231;59.370;18.016;2023-05-07T00:28:13;5.20;;;2.20;;
14294;SDS011;7231;59.370;18.016;2023-05-07T00:30:41;3.13;;;2.00;;
14294;SDS011;7231;59.370;18.016;2023-05-07T00:33:09;5.97;;;2.33;;
14294;SDS011;7231;59.370;18.016;2023-05-07T00:35:38;3.47;;;2.17;;
14294;SDS011;7231;59.370;18.016;2023-05-07T00:38:06;2.90;;;2.13;;
14294;SDS011;7231;59.370;18.016;2023-05-07T00:40:34;4.97;;;2.43;;
14294;SDS011;7231;59.370;18.016;2023-05-07T00:43:02;3.27;;;2.27;;
14294;SDS011;7231;59.370;18.016;2023-05-07T00:45:30;3.63;;;2.27;;
14294;SDS011;7231;59.370;18.016;2023-05-07T00:47:58;4.87;;;2.37;;
14294;SDS011;7231;59.370;18.016;2023-05-07T00:50:28;5.97;;;2.60;;
14294;SDS011;7231;59.370;18.016;2023-05-07T00:52:58;4.60;;;2.20;;
14294;SDS011;7231;59.370;18.016;2023-05-07T00:55:26;6.07;;;2.20;;
14294;SDS011;7231;59.370;18.016;2023-05-07T00:57:54;2.40;;;2.10;;
14294;SDS011;7231;59.370;18.016;2023-05-07T01:00:22;4.23;;;2.20;;
14294;SDS011;7231;59.370;18.016;2023-05-07T01:02:51;6.23;;;2.30;;
14294;SDS011;7231;59.370;18.016;2023-05-07T01:05:20;4.07;;;2.50;;
14294;SDS011;7231;59.370;18.016;2023-05-07T01:07:51;3.43;;;1.73;;
14294;SDS011;7231;59.370;18.016;2023-05-07T01:10:22;5.20;;;2.27;;
14294;SDS011;7231;59.370;18.016;2023-05-07T01:12:51;5.17;;;2.40;;
14294;SDS011;7231;59.370;18.016;2023-05-07T01:15:21;4.03;;;2.53;;
14294;SDS011;7231;59.370;18.016;2023-05-07T01:17:49;6.60;;;2.80;;
14294;SDS011;7231;59.370;18.016;2023-05-07T01:20:17;6.17;;;2.40;;
14294;SDS011;7231;59.370;18.016;2023-05-07T01:22:47;8.70;;;2.73;;
14294;SDS011;7231;59.370;18.016;2023-05-07T01:25:16;4.53;;;2.40;;
14294;SDS011;7231;59.370;18.016;2023-05-07T01:27:45;3.90;;;2.50;;
14294;SDS011;7231;59.370;18.016;2023-05-07T01:30:13;4.07;;;2.77;;
14294;SDS011;7231;59.370;18.016;2023-05-07T01:32:42;4.73;;;2.70;;
14294;SDS011;7231;59.370;18.016;2023-05-07T01:35:13;3.27;;;2.63;;
14294;SDS011;7231;59.370;18.016;2023-05-07T01:37:47;4.67;;;2.77;;
14294;SDS011;7231;59.370;18.016;2023-05-07T01:40:16;3.80;;;2.50;;
14294;SDS011;7231;59.370;18.016;2023-05-07T01:42:44;4.93;;;2.93;;
14294;SDS011;7231;59.370;18.016;2023-05-07T01:45:14;5.67;;;2.67;;
14294;SDS011;7231;59.370;18.016;2023-05-07T01:47:42;9.07;;;2.93;;
14294;SDS011;7231;59.370;18.016;2023-05-07T01:50:11;10.37;;;3.30;;
14294;SDS011;7231;59.370;18.016;2023-05-07T01:52:40;7.87;;;2.80;;
14294;SDS011;7231;59.370;18.016;2023-05-07T01:55:09;9.93;;;3.23;;
14294;SDS011;7231;59.370;18.016;2023-05-07T01:57:37;11.23;;;4.00;;
14294;SDS011;7231;59.370;18.016;2023-05-07T02:00:06;6.97;;;2.97;;
14294;SDS011;7231;59.370;18.016;2023-05-07T02:02:36;5.47;;;2.93;;
14294;SDS011;7231;59.370;18.016;2023-05-07T02:05:05;5.10;;;3.77;;
14294;SDS011;7231;59.370;18.016;2023-05-07T02:07:33;6.63;;;3.67;;
14294;SDS011;7231;59.370;18.016;2023-05-07T02:10:01;4.33;;;3.20;;
14294;SDS011;7231;59.370;18.016;2023-05-07T02:12:31;4.47;;;3.20;;
14294;SDS011;7231;59.370;18.016;2023-05-07T02:14:59;3.70;;;3.33;;
14294;SDS011;7231;59.370;18.016;2023-05-07T02:17:27;5.10;;;3.17;;
14294;SDS011;7231;59.370;18.016;2023-05-07T02:19:58;7.40;;;3.60;;
14294;SDS011;7231;59.370;18.016;2023-05-07T02:22:26;7.10;;;3.40;;
14294;SDS011;7231;59.370;18.016;2023-05-07T02:24:54;5.53;;;3.40;;
14294;SDS011;7231;59.370;18.016;2023-05-07T02:27:22;4.33;;;3.83;;
14294;SDS011;7231;59.370;18.016;2023-05-07T02:29:51;6.33;;;3.63;;
14294;SDS011;7231;59.370;18.016;2023-05-07T02:32:19;8.27;;;3.60;;
14294;SDS011;7231;59.370;18.016;2023-05-07T02:34:49;3.80;;;3.20;;
14294;SDS011;7231;59.370;18.016;2023-05-07T02:37:18;4.67;;;3.27;;
14294;SDS011;7231;59.370;18.016;2023-05-07T02:39:46;4.00;;;3.17;;
14294;SDS011;7231;59.370;18.016;2023-05-07T02:42:14;4.83;;;3.47;;
14294;SDS011;7231;59.370;18.016;2023-05-07T02:44:42;4.10;;;3.20;;
14294;SDS011;7231;59.370;18.016;2023-05-07T02:47:13;7.23;;;3.70;;
14294;SDS011;7231;59.370;18.016;2023-05-07T02:49:41;6.57;;;2.83;;
14294;SDS011;7231;59.370;18.016;2023-05-07T02:52:09;4.87;;;3.07;;
14294;SDS011;7231;59.370;18.016;2023-05-07T02:54:37;5.87;;;3.80;;
14294;SDS011;7231;59.370;18.016;2023-05-07T02:57:05;4.17;;;3.23;;
14294;SDS011;7231;59.370;18.016;2023-05-07T02:59:33;6.10;;;3.40;;
14294;SDS011;7231;59.370;18.016;2023-05-07T03:02:00;4.73;;;3.97;;
14294;SDS011;7231;59.370;18.016;2023-05-07T03:04:30;4.40;;;3.60;;
14294;SDS011;7231;59.370;18.016;2023-05-07T03:06:58;5.53;;;3.53;;
14294;SDS011;7231;59.370;18.016;2023-05-07T03:09:26;6.50;;;3.80;;
14294;SDS011;7231;59.370;18.016;2023-05-07T03:11:53;5.67;;;3.20;;
14294;SDS011;7231;59.370;18.016;2023-05-07T03:14:22;4.87;;;3.83;;
14294;SDS011;7231;59.370;18.016;2023-05-07T03:16:50;6.07;;;4.13;;
14294;SDS011;7231;59.370;18.016;2023-05-07T03:19:17;4.40;;;3.67;;
14294;SDS011;7231;59.370;18.016;2023-05-07T03:21:47;6.10;;;3.83;;
14294;SDS011;7231;59.370;18.016;2023-05-07T03:24:15;6.13;;;3.70;;
14294;SDS011;7231;59.370;18.016;2023-05-07T03:26:43;4.73;;;3.20;;
14294;SDS011;7231;59.370;18.016;2023-05-07T03:29:11;6.10;;;3.53;;
14294;SDS011;7231;59.370;18.016;2023-05-07T03:31:39;4.27;;;3.47;;
14294;SDS011;7231;59.370;18.016;2023-05-07T03:34:06;4.67;;;3.30;;
14294;SDS011;7231;59.370;18.016;2023-05-07T03:36:34;5.30;;;3.87;;
14294;SDS011;7231;59.370;18.016;2023-05-07T03:39:04;5.17;;;3.70;;
14294;SDS011;7231;59.370;18.016;2023-05-07T03:41:32;4.30;;;3.40;;
14294;SDS011;7231;59.370;18.016;2023-05-07T03:44:00;4.50;;;3.23;;
14294;SDS011;7231;59.370;18.016;2023-05-07T03:46:28;3.73;;;3.10;;
14294;SDS011;7231;59.370;18.016;2023-05-07T03:48:56;4.93;;;3.30;;
14294;SDS011;7231;59.370;18.016;2023-05-07T03:51:24;5.10;;;3.67;;
14294;SDS011;7231;59.370;18.016;2023-05-07T03:53:52;3.80;;;3.20;;
14294;SDS011;7231;59.370;18.016;2023-05-07T03:56:21;4.23;;;3.23;;
14294;SDS011;7231;59.370;18.016;2023-05-07T03:58:49;9.90;;;3.20;;
14294;SDS011;7231;59.370;18.016;2023-05-07T04:01:17;5.13;;;3.40;;
14294;SDS011;7231;59.370;18.016;2023-05-07T04:03:45;7.57;;;3.10;;
14294;SDS011;7231;59.370;18.016;2023-05-07T04:06:15;4.30;;;3.83;;
14294;SDS011;7231;59.370;18.016;2023-05-07T04:08:43;4.57;;;3.57;;
14294;SDS011;7231;59.370;18.016;2023-05-07T04:11:11;3.93;;;3.30;;
14294;SDS011;7231;59.370;18.016;2023-05-07T04:13:40;5.07;;;3.47;;
14294;SDS011;7231;59.370;18.016;2023-05-07T04:16:08;4.23;;;3.30;;
14294;SDS011;7231;59.370;18.016;2023-05-07T04:18:36;3.80;;;3.03;;
14294;SDS011;7231;59.370;18.016;2023-05-07T04:21:04;8.23;;;3.57;;
14294;SDS011;7231;59.370;18.016;2023-05-07T04:23:33;4.83;;;3.60;;
14294;SDS011;7231;59.370;18.016;2023-05-07T04:26:00;5.33;;;3.23;;
14294;SDS011;7231;59.370;18.016;2023-05-07T04:28:29;4.70;;;3.50;;
14294;SDS011;7231;59.370;18.016;2023-05-07T04:30:58;6.33;;;3.43;;
14294;SDS011;7231;59.370;18.016;2023-05-07T04:33:26;5.27;;;3.40;;
14294;SDS011;7231;59.370;18.016;2023-05-07T04:35:54;5.70;;;2.90;;
14294;SDS011;7231;59.370;18.016;2023-05-07T04:38:22;7.60;;;3.40;;
14294;SDS011;7231;59.370;18.016;2023-05-07T04:40:50;4.20;;;3.17;;
14294;SDS011;7231;59.370;18.016;2023-05-07T04:43:18;3.80;;;2.93;;
14294;SDS011;7231;59.370;18.016;2023-05-07T04:45:47;5.07;;;2.90;;
14294;SDS011;7231;59.370;18.016;2023-05-07T04:48:17;4.03;;;2.90;;
14294;SDS011;7231;59.370;18.016;2023-05-07T04:50:47;3.60;;;2.40;;
14294;SDS011;7231;59.370;18.016;2023-05-07T04:53:15;5.53;;;2.53;;
14294;SDS011;7231;59.370;18.016;2023-05-07T04:55:44;3.43;;;2.47;;
14294;SDS011;7231;59.370;18.016;2023-05-07T04:58:12;5.10;;;2.60;;
14294;SDS011;7231;59.370;18.016;2023-05-07T05:00:40;3.03;;;2.50;;
14294;SDS011;7231;59.370;18.016;2023-05-07T05:03:08;6.20;;;2.33;;
14294;SDS011;7231;59.370;18.016;2023-05-07T05:05:39;4.03;;;2.27;;
14294;SDS011;7231;59.370;18.016;2023-05-07T05:08:08;3.40;;;2.40;;
14294;SDS011;7231;59.370;18.016;2023-05-07T05:10:36;3.30;;;2.50;;
14294;SDS011;7231;59.370;18.016;2023-05-07T05:13:04;2.97;;;2.00;;
14294;SDS011;7231;59.370;18.016;2023-05-07T05:15:35;2.30;;;2.00;;
14294;SDS011;7231;59.370;18.016;2023-05-07T05:18:03;2.03;;;1.80;;
14294;SDS011;7231;59.370;18.016;2023-05-07T05:20:31;2.60;;;2.10;;
14294;SDS011;7231;59.370;18.016;2023-05-07T05:23:01;2.60;;;1.90;;
14294;SDS011;7231;59.370;18.016;2023-05-07T05:25:29;2.37;;;2.17;;
14294;SDS011;7231;59.370;18.016;2023-05-07T05:27:57;2.87;;;1.93;;
14294;SDS011;7231;59.370;18.016;2023-05-07T05:30:25;2.93;;;2.20;;
14294;SDS011;7231;59.370;18.016;2023-05-07T05:32:53;2.60;;;1.70;;
14294;SDS011;7231;59.370;18.016;2023-05-07T05:35:21;2.97;;;2.00;;
14294;SDS011;7231;59.370;18.016;2023-05-07T05:37:49;2.40;;;2.13;;
14294;SDS011;7231;59.370;18.016;2023-05-07T05:40:18;3.60;;;1.70;;
14294;SDS011;7231;59.370;18.016;2023-05-07T05:42:48;2.00;;;1.80;;
14294;SDS011;7231;59.370;18.016;2023-05-07T05:45:16;2.60;;;1.57;;
14294;SDS011;7231;59.370;18.016;2023-05-07T05:47:45;3.87;;;2.63;;
14294;SDS011;7231;59.370;18.016;2023-05-07T05:50:13;1.93;;;1.73;;
14294;SDS011;7231;59.370;18.016;2023-05-07T05:52:41;4.00;;;2.00;;
14294;SDS011;7231;59.370;18.016;2023-05-07T05:55:09;2.30;;;1.90;;
14294;SDS011;7231;59.370;18.016;2023-05-07T05:57:38;6.47;;;2.53;;
14294;SDS011;7231;59.370;18.016;2023-05-07T06:00:08;2.13;;;1.93;;
14294;SDS011;7231;59.370;18.016;2023-05-07T06:02:37;5.00;;;1.93;;
14294;SDS011;7231;59.370;18.016;2023-05-07T06:05:06;1.93;;;1.50;;
14294;SDS011;7231;59.370;18.016;2023-05-07T06:07:34;1.57;;;1.47;;
14294;SDS011;7231;59.370;18.016;2023-05-07T06:10:02;2.83;;;1.53;;
14294;SDS011;7231;59.370;18.016;2023-05-07T06:12:30;3.93;;;1.70;;
14294;SDS011;7231;59.370;18.016;2023-05-07T06:15:00;2.43;;;1.60;;
14294;SDS011;7231;59.370;18.016;2023-05-07T06:17:28;2.70;;;1.70;;
14294;SDS011;7231;59.370;18.016;2023-05-07T06:19:57;2.03;;;1.73;;
14294;SDS011;7231;59.370;18.016;2023-05-07T06:22:25;2.77;;;1.60;;
14294;SDS011;7231;59.370;18.016;2023-05-07T06:24:52;2.30;;;1.50;;
14294;SDS011;7231;59.370;18.016;2023-05-07T06:27:20;1.90;;;1.30;;
14294;SDS011;7231;59.370;18.016;2023-05-07T06:29:48;1.63;;;1.37;;
14294;SDS011;7231;59.370;18.016;2023-05-07T06:32:19;1.93;;;1.30;;
14294;SDS011;7231;59.370;18.016;2023-05-07T06:34:47;1.93;;;1.47;;
14294;SDS011;7231;59.370;18.016;2023-05-07T06:37:15;3.53;;;1.40;;
14294;SDS011;7231;59.370;18.016;2023-05-07T06:39:43;2.00;;;1.50;;
14294;SDS011;7231;59.370;18.016;2023-05-07T06:42:11;1.90;;;1.60;;
14294;SDS011;7231;59.370;18.016;2023-05-07T06:44:39;2.20;;;1.30;;
14294;SDS011;7231;59.370;18.016;2023-05-07T06:47:06;2.10;;;1.23;;
14294;SDS011;7231;59.370;18.016;2023-05-07T06:49:36;2.90;;;1.50;;
14294;SDS011;7231;59.370;18.016;2023-05-07T06:52:04;2.73;;;1.40;;
14294;SDS011;7231;59.370;18.016;2023-05-07T06:54:32;2.57;;;1.27;;
14294;SDS011;7231;59.370;18.016;2023-05-07T06:57:00;2.90;;;1.43;;
14294;SDS011;7231;59.370;18.016;2023-05-07T06:59:28;3.03;;;1.50;;
14294;SDS011;7231;59.370;18.016;2023-05-07T07:01:56;2.67;;;1.53;;
14294;SDS011;7231;59.370;18.016;2023-05-07T07:04:24;2.27;;;1.50;;
14294;SDS011;7231;59.370;18.016;2023-05-07T07:06:53;2.10;;;1.60;;
14294;SDS011;7231;59.370;18.016;2023-05-07T07:09:22;3.30;;;1.30;;
14294;SDS011;7231;59.370;18.016;2023-05-07T07:11:50;1.40;;;1.27;;
14294;SDS011;7231;59.370;18.016;2023-05-07T07:14:18;3.07;;;1.33;;
14294;SDS011;7231;59.370;18.016;2023-05-07T07:16:46;2.00;;;1.27;;
14294;SDS011;7231;59.370;18.016;2023-05-07T07:19:15;1.80;;;1.10;;
14294;SDS011;7231;59.370;18.016;2023-05-07T07:21:43;2.30;;;1.20;;
14294;SDS011;7231;59.370;18.016;2023-05-07T07:24:12;1.77;;;1.20;;
14294;SDS011;7231;59.370;18.016;2023-05-07T07:26:45;1.58;;;1.30;;
14294;SDS011;7231;59.370;18.016;2023-05-07T07:29:13;1.60;;;1.30;;
14294;SDS011;7231;59.370;18.016;2023-05-07T07:31:41;1.58;;;0.95;;
14294;SDS011;7231;59.370;18.016;2023-05-07T07:34:09;2.40;;;1.55;;
14294;SDS011;7231;59.370;18.016;2023-05-07T07:36:37;1.85;;;1.10;;
14294;SDS011;7231;59.370;18.016;2023-05-07T07:39:13;2.58;;;1.10;;
14294;SDS011;7231;59.370;18.016;2023-05-07T07:41:42;2.38;;;1.30;;
14294;SDS011;7231;59.370;18.016;2023-05-07T07:44:09;2.78;;;1.20;;
14294;SDS011;7231;59.370;18.016;2023-05-07T07:46:41;1.67;;;1.52;;
14294;SDS011;7231;59.370;18.016;2023-05-07T07:49:09;2.33;;;1.23;;
14294;SDS011;7231;59.370;18.016;2023-05-07T07:51:37;2.53;;;1.38;;
14294;SDS011;7231;59.370;18.016;2023-05-07T07:54:05;2.88;;;1.42;;
14294;SDS011;7231;59.370;18.016;2023-05-07T07:56:35;2.25;;;0.90;;
14294;SDS011;7231;59.370;18.016;2023-05-07T07:59:03;2.28;;;1.30;;
14294;SDS011;7231;59.370;18.016;2023-05-07T08:01:33;2.75;;;1.50;;
14294;SDS011;7231;59.370;18.016;2023-05-07T08:04:01;2.75;;;1.20;;
14294;SDS011;7231;59.370;18.016;2023-05-07T08:06:32;1.45;;;1.20;;
14294;SDS011;7231;59.370;18.016;2023-05-07T08:09:00;2.40;;;1.10;;
14294;SDS011;7231;59.370;18.016;2023-05-07T08:11:28;3.22;;;1.17;;
14294;SDS011;7231;59.370;18.016;2023-05-07T08:13:58;4.07;;;1.23;;
14294;SDS011;7231;59.370;18.016;2023-05-07T08:16:26;2.35;;;0.93;;
14294;SDS011;7231;59.370;18.016;2023-05-07T08:18:56;1.85;;;1.10;;
14294;SDS011;7231;59.370;18.016;2023-05-07T08:21:24;1.75;;;0.93;;
14294;SDS011;7231;59.370;18.016;2023-05-07T08:23:52;1.38;;;1.05;;
14294;SDS011;7231;59.370;18.016;2023-05-07T08:26:20;2.15;;;1.00;;
14294;SDS011;7231;59.370;18.016;2023-05-07T08:28:48;1.98;;;1.20;;
14294;SDS011;7231;59.370;18.016;2023-05-07T08:31:17;3.55;;;1.30;;
14294;SDS011;7231;59.370;18.016;2023-05-07T08:33:49;2.15;;;1.27;;
14294;SDS011;7231;59.370;18.016;2023-05-07T08:36:17;2.97;;;0.93;;
14294;SDS011;7231;59.370;18.016;2023-05-07T08:38:46;3.22;;;1.20;;
14294;SDS011;7231;59.370;18.016;2023-05-07T08:41:18;1.67;;;0.90;;
14294;SDS011;7231;59.370;18.016;2023-05-07T08:43:53;1.60;;;0.80;;
14294;SDS011;7231;59.370;18.016;2023-05-07T08:46:27;1.52;;;1.20;;
14294;SDS011;7231;59.370;18.016;2023-05-07T08:48:59;1.60;;;1.00;;
14294;SDS011;7231;59.370;18.016;2023-05-07T08:51:30;3.53;;;1.20;;
14294;SDS011;7231;59.370;18.016;2023-05-07T08:53:58;3.70;;;1.33;;
14294;SDS011;7231;59.370;18.016;2023-05-07T08:56:28;2.97;;;1.00;;
14294;SDS011;7231;59.370;18.016;2023-05-07T08:58:57;3.83;;;1.65;;
14294;SDS011;7231;59.370;18.016;2023-05-07T09:01:26;2.75;;;1.00;;
14294;SDS011;7231;59.370;18.016;2023-05-07T09:03:54;2.55;;;1.10;;
14294;SDS011;7231;59.370;18.016;2023-05-07T09:06:22;5.53;;;1.10;;
14294;SDS011;7231;59.370;18.016;2023-05-07T09:08:51;1.63;;;1.08;;
14294;SDS011;7231;59.370;18.016;2023-05-07T09:11:20;4.82;;;0.95;;
14294;SDS011;7231;59.370;18.016;2023-05-07T09:13:52;1.50;;;1.05;;
14294;SDS011;7231;59.370;18.016;2023-05-07T09:16:21;2.08;;;1.25;;
14294;SDS011;7231;59.370;18.016;2023-05-07T09:18:52;1.23;;;0.90;;
14294;SDS011;7231;59.370;18.016;2023-05-07T09:21:21;1.88;;;1.02;;
14294;SDS011;7231;59.370;18.016;2023-05-07T09:23:50;1.17;;;1.00;;
14294;SDS011;7231;59.370;18.016;2023-05-07T09:26:19;2.15;;;0.90;;
14294;SDS011;7231;59.370;18.016;2023-05-07T09:28:49;1.35;;;0.90;;
14294;SDS011;7231;59.370;18.016;2023-05-07T09:31:17;1.02;;;0.90;;
14294;SDS011;7231;59.370;18.016;2023-05-07T09:33:47;1.27;;;0.77;;
14294;SDS011;7231;59.370;18.016;2023-05-07T09:36:16;1.67;;;0.90;;
14294;SDS011;7231;59.370;18.016;2023-05-07T09:38:45;1.88;;;1.05;;
14294;SDS011;7231;59.370;18.016;2023-05-07T09:41:13;2.95;;;1.15;;
14294;SDS011;7231;59.370;18.016;2023-05-07T09:43:41;4.10;;;1.10;;
14294;SDS011;7231;59.370;18.016;2023-05-07T09:46:11;2.80;;;1.20;;
14294;SDS011;7231;59.370;18.016;2023-05-07T09:48:41;1.33;;;0.85;;
14294;SDS011;7231;59.370;18.016;2023-05-07T09:51:12;5.97;;;1.20;;
14294;SDS011;7231;59.370;18.016;2023-05-07T09:53:49;5.40;;;1.10;;
14294;SDS011;7231;59.370;18.016;2023-05-07T09:56:19;2.28;;;0.85;;
14294;SDS011;7231;59.370;18.016;2023-05-07T09:58:50;4.05;;;1.20;;
14294;SDS011;7231;59.370;18.016;2023-05-07T10:01:21;4.22;;;1.20;;
14294;SDS011;7231;59.370;18.016;2023-05-07T10:03:50;2.28;;;0.90;;
14294;SDS011;7231;59.370;18.016;2023-05-07T10:06:21;3.20;;;1.10;;
14294;SDS011;7231;59.370;18.016;2023-05-07T10:08:53;2.92;;;1.00;;
14294;SDS011;7231;59.370;18.016;2023-05-07T10:11:22;1.95;;;1.10;;
14294;SDS011;7231;59.370;18.016;2023-05-07T10:13:50;2.08;;;0.90;;
14294;SDS011;7231;59.370;18.016;2023-05-07T10:16:20;5.20;;;1.13;;
14294;SDS011;7231;59.370;18.016;2023-05-07T10:18:48;1.33;;;1.13;;
14294;SDS011;7231;59.370;18.016;2023-05-07T10:21:17;2.72;;;1.13;;
14294;SDS011;7231;59.370;18.016;2023-05-07T10:23:48;3.33;;;1.23;;
14294;SDS011;7231;59.370;18.016;2023-05-07T10:26:18;4.85;;;1.23;;
14294;SDS011;7231;59.370;18.016;2023-05-07T10:28:50;3.42;;;1.10;;
14294;SDS011;7231;59.370;18.016;2023-05-07T10:31:34;1.63;;;1.00;;
14294;SDS011;7231;59.370;18.016;2023-05-07T10:34:14;1.48;;;0.85;;
14294;SDS011;7231;59.370;18.016;2023-05-07T10:36:46;2.47;;;1.10;;
14294;SDS011;7231;59.370;18.016;2023-05-07T10:39:16;3.78;;;1.10;;
14294;SDS011;7231;59.370;18.016;2023-05-07T10:41:46;2.35;;;1.10;;
14294;SDS011;7231;59.370;18.016;2023-05-07T10:44:24;3.15;;;1.20;;
14294;SDS011;7231;59.370;18.016;2023-05-07T10:47:08;1.10;;;0.93;;
14294;SDS011;7231;59.370;18.016;2023-05-07T10:49:46;2.28;;;1.00;;
14294;SDS011;7231;59.370;18.016;2023-05-07T10:58:53;1.70;;;1.00;;
14294;SDS011;7231;59.370;18.016;2023-05-07T11:04:24;5.03;;;1.20;;
14294;SDS011;7231;59.370;18.016;2023-05-07T11:09:58;0.98;;;0.88;;
14294;SDS011;7231;59.370;18.016;2023-05-07T11:12:51;1.73;;;1.00;;
14294;SDS011;7231;59.370;18.016;2023-05-07T11:15:33;2.92;;;1.08;;
14294;SDS011;7231;59.370;18.016;2023-05-07T11:18:05;1.75;;;0.95;;
14294;SDS011;7231;59.370;18.016;2023-05-07T11:20:46;8.32;;;1.80;;
14294;SDS011;7231;59.370;18.016;2023-05-07T11:26:25;3.95;;;1.02;;
14294;SDS011;7231;59.370;18.016;2023-05-07T11:28:56;3.88;;;1.20;;
14294;SDS011;7231;59.370;18.016;2023-05-07T11:31:26;2.10;;;1.17;;
14294;SDS011;7231;59.370;18.016;2023-05-07T11:33:56;3.35;;;1.27;;
14294;SDS011;7231;59.370;18.016;2023-05-07T11:36:25;3.42;;;1.10;;
14294;SDS011;7231;59.370;18.016;2023-05-07T11:38:58;4.18;;;1.10;;
14294;SDS011;7231;59.370;18.016;2023-05-07T11:41:33;0.90;;;0.90;;
14294;SDS011;7231;59.370;18.016;2023-05-07T11:44:03;3.45;;;1.10;;
14294;SDS011;7231;59.370;18.016;2023-05-07T11:46:31;1.65;;;1.20;;
14294;SDS011;7231;59.370;18.016;2023-05-07T11:49:00;3.67;;;1.60;;
14294;SDS011;7231;59.370;18.016;2023-05-07T11:51:28;3.00;;;1.70;;
14294;SDS011;7231;59.370;18.016;2023-05-07T11:53:56;2.25;;;1.00;;
14294;SDS011;7231;59.370;18.016;2023-05-07T11:56:24;2.72;;;1.63;;
14294;SDS011;7231;59.370;18.016;2023-05-07T11:58:52;3.05;;;1.48;;
14294;SDS011;7231;59.370;18.016;2023-05-07T12:01:21;3.78;;;1.20;;
14294;SDS011;7231;59.370;18.016;2023-05-07T12:03:49;4.38;;;1.15;;
14294;SDS011;7231;59.370;18.016;2023-05-07T12:06:18;3.00;;;1.20;;
14294;SDS011;7231;59.370;18.016;2023-05-07T12:08:46;3.38;;;1.20;;
14294;SDS011;7231;59.370;18.016;2023-05-07T12:11:15;4.13;;;0.90;;
14294;SDS011;7231;59.370;18.016;2023-05-07T12:13:50;3.22;;;0.90;;
14294;SDS011;7231;59.370;18.016;2023-05-07T12:16:18;3.53;;;1.30;;
14294;SDS011;7231;59.370;18.016;2023-05-07T12:18:48;2.80;;;1.40;;
14294;SDS011;7231;59.370;18.016;2023-05-07T12:21:19;4.43;;;1.30;;
14294;SDS011;7231;59.370;18.016;2023-05-07T12:23:47;3.47;;;1.02;;
14294;SDS011;7231;59.370;18.016;2023-05-07T12:26:15;1.73;;;0.82;;
14294;SDS011;7231;59.370;18.016;2023-05-07T12:28:43;3.72;;;1.05;;
14294;SDS011;7231;59.370;18.016;2023-05-07T12:31:11;2.35;;;1.15;;
14294;SDS011;7231;59.370;18.016;2023-05-07T12:33:41;1.90;;;1.20;;
14294;SDS011;7231;59.370;18.016;2023-05-07T12:36:12;5.47;;;1.30;;
14294;SDS011;7231;59.370;18.016;2023-05-07T12:38:40;1.70;;;0.85;;
14294;SDS011;7231;59.370;18.016;2023-05-07T12:41:09;6.90;;;1.13;;
14294;SDS011;7231;59.370;18.016;2023-05-07T12:43:38;2.22;;;0.80;;
14294;SDS011;7231;59.370;18.016;2023-05-07T12:46:07;2.00;;;0.85;;
14294;SDS011;7231;59.370;18.016;2023-05-07T12:48:36;0.88;;;0.70;;
14294;SDS011;7231;59.370;18.016;2023-05-07T12:51:05;2.28;;;0.85;;
14294;SDS011;7231;59.370;18.016;2023-05-07T12:53:40;1.55;;;1.00;;
14294;SDS011;7231;59.370;18.016;2023-05-07T12:56:09;2.65;;;0.70;;
14294;SDS011;7231;59.370;18.016;2023-05-07T12:58:37;9.75;;;1.15;;
14294;SDS011;7231;59.370;18.016;2023-05-07T13:01:06;1.98;;;1.13;;
14294;SDS011;7231;59.370;18.016;2023-05-07T13:03:37;2.97;;;0.63;;
14294;SDS011;7231;59.370;18.016;2023-05-07T13:06:06;1.40;;;0.80;;
14294;SDS011;7231;59.370;18.016;2023-05-07T13:08:36;1.95;;;0.98;;
14294;SDS011;7231;59.370;18.016;2023-05-07T13:11:09;3.72;;;0.75;;
14294;SDS011;7231;59.370;18.016;2023-05-07T13:13:37;3.13;;;0.60;;
14294;SDS011;7231;59.370;18.016;2023-05-07T13:16:07;2.28;;;1.05;;
14294;SDS011;7231;59.370;18.016;2023-05-07T13:18:37;0.98;;;0.55;;
14294;SDS011;7231;59.370;18.016;2023-05-07T13:21:07;2.95;;;1.00;;
14294;SDS011;7231;59.370;18.016;2023-05-07T13:23:36;1.58;;;0.80;;
14294;SDS011;7231;59.370;18.016;2023-05-07T13:26:05;1.73;;;0.77;;
14294;SDS011;7231;59.370;18.016;2023-05-07T13:28:52;1.48;;;0.90;;
14294;SDS011;7231;59.370;18.016;2023-05-07T13:31:21;4.10;;;0.77;;
14294;SDS011;7231;59.370;18.016;2023-05-07T13:33:49;1.88;;;0.73;;
14294;SDS011;7231;59.370;18.016;2023-05-07T13:36:17;2.33;;;0.80;;
14294;SDS011;7231;59.370;18.016;2023-05-07T13:38:45;2.33;;;0.68;;
14294;SDS011;7231;59.370;18.016;2023-05-07T13:41:13;4.22;;;0.95;;
14294;SDS011;7231;59.370;18.016;2023-05-07T13:43:41;1.95;;;0.90;;
14294;SDS011;7231;59.370;18.016;2023-05-07T13:46:11;0.80;;;0.65;;
14294;SDS011;7231;59.370;18.016;2023-05-07T13:48:39;1.77;;;1.00;;
14294;SDS011;7231;59.370;18.016;2023-05-07T13:51:07;1.98;;;0.93;;
14294;SDS011;7231;59.370;18.016;2023-05-07T13:53:35;3.15;;;1.00;;
14294;SDS011;7231;59.370;18.016;2023-05-07T13:56:03;2.53;;;1.10;;
14294;SDS011;7231;59.370;18.016;2023-05-07T13:58:34;3.63;;;1.23;;
14294;SDS011;7231;59.370;18.016;2023-05-07T14:01:15;1.95;;;0.75;;
14294;SDS011;7231;59.370;18.016;2023-05-07T14:03:43;1.23;;;0.98;;
14294;SDS011;7231;59.370;18.016;2023-05-07T14:06:11;3.63;;;1.08;;
14294;SDS011;7231;59.370;18.016;2023-05-07T14:08:39;4.05;;;1.00;;
14294;SDS011;7231;59.370;18.016;2023-05-07T14:11:07;3.88;;;1.10;;
14294;SDS011;7231;59.370;18.016;2023-05-07T14:13:35;5.22;;;0.80;;
14294;SDS011;7231;59.370;18.016;2023-05-07T14:16:03;3.38;;;1.10;;
14294;SDS011;7231;59.370;18.016;2023-05-07T14:18:33;3.63;;;1.02;;
14294;SDS011;7231;59.370;18.016;2023-05-07T14:21:04;5.63;;;1.27;;
14294;SDS011;7231;59.370;18.016;2023-05-07T14:23:32;2.30;;;0.90;;
14294;SDS011;7231;59.370;18.016;2023-05-07T14:26:00;3.33;;;1.00;;
14294;SDS011;7231;59.370;18.016;2023-05-07T14:28:28;2.35;;;1.10;;
14294;SDS011;7231;59.370;18.016;2023-05-07T14:30:56;2.05;;;1.00;;
14294;SDS011;7231;59.370;18.016;2023-05-07T14:33:24;3.40;;;1.20;;
14294;SDS011;7231;59.370;18.016;2023-05-07T14:35:54;1.65;;;1.10;;
14294;SDS011;7231;59.370;18.016;2023-05-07T14:38:21;3.67;;;1.00;;
14294;SDS011;7231;59.370;18.016;2023-05-07T14:40:49;2.97;;;1.00;;
14294;SDS011;7231;59.370;18.016;2023-05-07T14:43:18;3.65;;;1.05;;
14294;SDS011;7231;59.370;18.016;2023-05-07T14:45:46;4.85;;;1.40;;
14294;SDS011;7231;59.370;18.016;2023-05-07T14:48:14;5.18;;;1.00;;
14294;SDS011;7231;59.370;18.016;2023-05-07T14:50:46;1.98;;;1.00;;
14294;SDS011;7231;59.370;18.016;2023-05-07T14:53:16;2.80;;;1.00;;
14294;SDS011;7231;59.370;18.016;2023-05-07T14:55:44;2.03;;;1.20;;
14294;SDS011;7231;59.370;18.016;2023-05-07T14:58:12;2.35;;;1.00;;
14294;SDS011;7231;59.370;18.016;2023-05-07T15:00:40;2.65;;;1.10;;
14294;SDS011;7231;59.370;18.016;2023-05-07T15:03:08;1.95;;;0.90;;
14294;SDS011;7231;59.370;18.016;2023-05-07T15:05:37;3.15;;;1.20;;
14294;SDS011;7231;59.370;18.016;2023-05-07T15:08:05;8.05;;;1.65;;
14294;SDS011;7231;59.370;18.016;2023-05-07T15:10:36;3.60;;;1.60;;
14294;SDS011;7231;59.370;18.016;2023-05-07T15:13:07;2.28;;;0.85;;
14294;SDS011;7231;59.370;18.016;2023-05-07T15:15:41;3.33;;;1.25;;